sensor_id;sensor_type;location;lat;lon;timestamp;P1;durP1;ratioP1;P2;durP2;ratioP2
35919;SDS011;36160;53.370;-6.196;2022-12-29T00:01:34;7.55;;;2.30;;
35919;SDS011;36160;53.370;-6.196;2022-12-29T00:04:01;7.05;;;1.85;;
35919;SDS011;36160;53.370;-6.196;2022-12-29T00:06:27;6.95;;;1.95;;
35919;SDS011;36160;53.370;-6.196;2022-12-29T00:08:53;3.00;;;2.00;;
35919;SDS011;36160;53.370;-6.196;2022-12-29T00:11:20;7.43;;;1.83;;
35919;SDS011;36160;53.370;-6.196;2022-12-29T00:13:48;8.13;;;1.60;;
35919;SDS011;36160;53.370;-6.196;2022-12-29T00:16:32;7.80;;;2.95;;
35919;SDS011;36160;53.370;-6.196;2022-12-29T00:18:59;5.47;;;1.60;;
35919;SDS011;36160;53.370;-6.196;2022-12-29T00:21:25;6.60;;;1.98;;
35919;SDS011;36160;53.370;-6.196;2022-12-29T00:24:19;12.13;;;2.30;;
35919;SDS011;36160;53.370;-6.196;2022-12-29T00:29:38;5.18;;;2.67;;
35919;SDS011;36160;53.370;-6.196;2022-12-29T00:32:22;6.85;;;1.90;;
35919;SDS011;36160;53.370;-6.196;2022-12-29T00:35:08;6.57;;;2.22;;
35919;SDS011;36160;53.370;-6.196;2022-12-29T00:37:40;6.55;;;2.47;;
35919;SDS011;36160;53.370;-6.196;2022-12-29T00:43:13;4.70;;;1.90;;
35919;SDS011;36160;53.370;-6.196;2022-12-29T00:45:57;4.90;;;2.22;;
35919;SDS011;36160;53.370;-6.196;2022-12-29T00:48:23;6.68;;;2.75;;
35919;SDS011;36160;53.370;-6.196;2022-12-29T00:51:10;4.78;;;1.77;;
35919;SDS011;36160;53.370;-6.196;2022-12-29T00:53:35;8.98;;;1.83;;
35919;SDS011;36160;53.370;-6.196;2022-12-29T00:56:05;7.95;;;2.22;;
35919;SDS011;36160;53.370;-6.196;2022-12-29T00:58:31;9.65;;;1.70;;
35919;SDS011;36160;53.370;-6.196;2022-12-29T01:01:07;8.15;;;2.92;;
35919;SDS011;36160;53.370;-6.196;2022-12-29T01:03:36;7.05;;;1.60;;
35919;SDS011;36160;53.370;-6.196;2022-12-29T01:06:03;7.20;;;1.48;;
35919;SDS011;36160;53.370;-6.196;2022-12-29T01:08:31;3.33;;;1.30;;
35919;SDS011;36160;53.370;-6.196;2022-12-29T01:11:01;9.80;;;1.60;;
35919;SDS011;36160;53.370;-6.196;2022-12-29T01:13:34;6.55;;;1.58;;
35919;SDS011;36160;53.370;-6.196;2022-12-29T01:16:00;14.05;;;4.15;;
35919;SDS011;36160;53.370;-6.196;2022-12-29T01:18:27;7.05;;;1.55;;
35919;SDS011;36160;53.370;-6.196;2022-12-29T01:21:04;6.20;;;1.60;;
35919;SDS011;36160;53.370;-6.196;2022-12-29T01:23:31;7.13;;;1.75;;
35919;SDS011;36160;53.370;-6.196;2022-12-29T01:25:57;8.02;;;1.83;;
35919;SDS011;36160;53.370;-6.196;2022-12-29T01:28:34;5.95;;;1.38;;
35919;SDS011;36160;53.370;-6.196;2022-12-29T01:31:00;9.30;;;2.42;;
35919;SDS011;36160;53.370;-6.196;2022-12-29T01:33:26;8.38;;;1.92;;
35919;SDS011;36160;53.370;-6.196;2022-12-29T01:35:52;9.63;;;2.45;;
35919;SDS011;36160;53.370;-6.196;2022-12-29T01:38:17;4.55;;;1.63;;
35919;SDS011;36160;53.370;-6.196;2022-12-29T01:40:46;5.82;;;1.60;;
35919;SDS011;36160;53.370;-6.196;2022-12-29T01:43:12;6.22;;;1.80;;
35919;SDS011;36160;53.370;-6.196;2022-12-29T01:45:42;4.88;;;1.50;;
35919;SDS011;36160;53.370;-6.196;2022-12-29T01:48:12;6.85;;;1.58;;
35919;SDS011;36160;53.370;-6.196;2022-12-29T01:50:39;11.43;;;2.47;;
35919;SDS011;36160;53.370;-6.196;2022-12-29T01:53:11;4.47;;;1.42;;
35919;SDS011;36160;53.370;-6.196;2022-12-29T01:55:46;4.68;;;1.40;;
35919;SDS011;36160;53.370;-6.196;2022-12-29T01:58:16;7.88;;;2.03;;
35919;SDS011;36160;53.370;-6.196;2022-12-29T02:00:45;8.88;;;2.00;;
35919;SDS011;36160;53.370;-6.196;2022-12-29T02:03:10;7.85;;;1.75;;
35919;SDS011;36160;53.370;-6.196;2022-12-29T02:08:02;6.00;;;2.47;;
35919;SDS011;36160;53.370;-6.196;2022-12-29T02:10:29;5.90;;;1.35;;
35919;SDS011;36160;53.370;-6.196;2022-12-29T02:12:57;7.22;;;1.35;;
35919;SDS011;36160;53.370;-6.196;2022-12-29T02:15:27;10.13;;;1.58;;
35919;SDS011;36160;53.370;-6.196;2022-12-29T02:40:47;7.80;;;1.70;;
35919;SDS011;36160;53.370;-6.196;2022-12-29T02:43:26;11.70;;;1.63;;
35919;SDS011;36160;53.370;-6.196;2022-12-29T02:46:04;6.90;;;1.30;;
35919;SDS011;36160;53.370;-6.196;2022-12-29T02:49:15;7.65;;;2.00;;
35919;SDS011;36160;53.370;-6.196;2022-12-29T02:54:27;6.20;;;2.08;;
35919;SDS011;36160;53.370;-6.196;2022-12-29T02:57:11;9.50;;;1.53;;
35919;SDS011;36160;53.370;-6.196;2022-12-29T02:59:40;14.65;;;2.17;;
35919;SDS011;36160;53.370;-6.196;2022-12-29T03:10:07;8.65;;;1.33;;
35919;SDS011;36160;53.370;-6.196;2022-12-29T03:13:01;8.70;;;2.22;;
35919;SDS011;36160;53.370;-6.196;2022-12-29T03:16:05;7.72;;;1.60;;
35919;SDS011;36160;53.370;-6.196;2022-12-29T03:18:47;4.78;;;1.30;;
35919;SDS011;36160;53.370;-6.196;2022-12-29T03:24:22;4.68;;;1.23;;
35919;SDS011;36160;53.370;-6.196;2022-12-29T03:26:53;9.98;;;1.77;;
35919;SDS011;36160;53.370;-6.196;2022-12-29T03:29:22;7.93;;;1.10;;
35919;SDS011;36160;53.370;-6.196;2022-12-29T03:31:49;9.95;;;3.20;;
35919;SDS011;36160;53.370;-6.196;2022-12-29T03:34:17;7.75;;;1.70;;
35919;SDS011;36160;53.370;-6.196;2022-12-29T03:36:49;8.15;;;1.05;;
35919;SDS011;36160;53.370;-6.196;2022-12-29T03:39:18;5.60;;;1.30;;
35919;SDS011;36160;53.370;-6.196;2022-12-29T03:41:46;6.60;;;1.95;;
35919;SDS011;36160;53.370;-6.196;2022-12-29T03:44:15;6.22;;;1.20;;
35919;SDS011;36160;53.370;-6.196;2022-12-29T03:46:40;4.82;;;1.00;;
35919;SDS011;36160;53.370;-6.196;2022-12-29T03:49:06;9.52;;;2.40;;
35919;SDS011;36160;53.370;-6.196;2022-12-29T03:51:31;6.07;;;1.30;;
35919;SDS011;36160;53.370;-6.196;2022-12-29T03:53:57;5.93;;;1.02;;
35919;SDS011;36160;53.370;-6.196;2022-12-29T03:56:23;11.23;;;2.75;;
35919;SDS011;36160;53.370;-6.196;2022-12-29T03:58:48;8.30;;;1.35;;
35919;SDS011;36160;53.370;-6.196;2022-12-29T04:01:14;8.15;;;2.13;;
35919;SDS011;36160;53.370;-6.196;2022-12-29T04:03:40;4.90;;;1.15;;
35919;SDS011;36160;53.370;-6.196;2022-12-29T04:06:05;7.95;;;1.48;;
35919;SDS011;36160;53.370;-6.196;2022-12-29T04:08:32;9.60;;;2.05;;
35919;SDS011;36160;53.370;-6.196;2022-12-29T04:10:58;13.70;;;2.35;;
35919;SDS011;36160;53.370;-6.196;2022-12-29T04:13:23;6.80;;;2.90;;
35919;SDS011;36160;53.370;-6.196;2022-12-29T04:15:49;7.05;;;1.75;;
35919;SDS011;36160;53.370;-6.196;2022-12-29T04:18:15;8.68;;;1.25;;
35919;SDS011;36160;53.370;-6.196;2022-12-29T04:20:41;9.43;;;1.40;;
35919;SDS011;36160;53.370;-6.196;2022-12-29T04:23:25;6.45;;;2.17;;
35919;SDS011;36160;53.370;-6.196;2022-12-29T04:25:52;13.65;;;2.13;;
35919;SDS011;36160;53.370;-6.196;2022-12-29T04:28:17;4.72;;;1.30;;
35919;SDS011;36160;53.370;-6.196;2022-12-29T04:30:43;5.00;;;1.50;;
35919;SDS011;36160;53.370;-6.196;2022-12-29T04:33:09;8.00;;;1.42;;
35919;SDS011;36160;53.370;-6.196;2022-12-29T04:35:35;8.63;;;2.20;;
35919;SDS011;36160;53.370;-6.196;2022-12-29T04:38:01;13.32;;;2.08;;
35919;SDS011;36160;53.370;-6.196;2022-12-29T04:40:27;14.90;;;2.13;;
35919;SDS011;36160;53.370;-6.196;2022-12-29T04:42:53;18.33;;;3.33;;
35919;SDS011;36160;53.370;-6.196;2022-12-29T04:45:19;9.82;;;1.98;;
35919;SDS011;36160;53.370;-6.196;2022-12-29T04:47:45;11.32;;;3.25;;
35919;SDS011;36160;53.370;-6.196;2022-12-29T04:50:10;25.08;;;3.47;;
35919;SDS011;36160;53.370;-6.196;2022-12-29T04:52:36;11.82;;;1.95;;
35919;SDS011;36160;53.370;-6.196;2022-12-29T04:55:02;19.85;;;3.40;;
35919;SDS011;36160;53.370;-6.196;2022-12-29T04:57:29;7.13;;;2.28;;
35919;SDS011;36160;53.370;-6.196;2022-12-29T04:59:54;11.73;;;2.83;;
35919;SDS011;36160;53.370;-6.196;2022-12-29T05:02:20;17.88;;;2.95;;
35919;SDS011;36160;53.370;-6.196;2022-12-29T05:04:46;14.02;;;2.90;;
35919;SDS011;36160;53.370;-6.196;2022-12-29T05:07:11;19.00;;;4.03;;
35919;SDS011;36160;53.370;-6.196;2022-12-29T05:09:38;14.57;;;2.28;;
35919;SDS011;36160;53.370;-6.196;2022-12-29T05:12:03;9.77;;;2.67;;
35919;SDS011;36160;53.370;-6.196;2022-12-29T05:14:30;9.07;;;3.35;;
35919;SDS011;36160;53.370;-6.196;2022-12-29T05:16:55;10.93;;;2.20;;
35919;SDS011;36160;53.370;-6.196;2022-12-29T05:19:21;14.10;;;2.33;;
35919;SDS011;36160;53.370;-6.196;2022-12-29T05:21:47;11.18;;;2.05;;
35919;SDS011;36160;53.370;-6.196;2022-12-29T05:24:12;13.38;;;2.55;;
35919;SDS011;36160;53.370;-6.196;2022-12-29T05:26:38;18.55;;;2.30;;
35919;SDS011;36160;53.370;-6.196;2022-12-29T05:29:04;18.45;;;3.17;;
35919;SDS011;36160;53.370;-6.196;2022-12-29T05:31:30;14.30;;;2.88;;
35919;SDS011;36160;53.370;-6.196;2022-12-29T05:33:55;9.80;;;1.65;;
35919;SDS011;36160;53.370;-6.196;2022-12-29T05:36:21;13.90;;;2.15;;
35919;SDS011;36160;53.370;-6.196;2022-12-29T05:38:47;9.10;;;1.63;;
35919;SDS011;36160;53.370;-6.196;2022-12-29T05:41:12;17.90;;;3.00;;
35919;SDS011;36160;53.370;-6.196;2022-12-29T05:43:38;14.80;;;3.08;;
35919;SDS011;36160;53.370;-6.196;2022-12-29T05:46:04;17.10;;;2.60;;
35919;SDS011;36160;53.370;-6.196;2022-12-29T05:48:29;18.77;;;3.25;;
35919;SDS011;36160;53.370;-6.196;2022-12-29T05:50:55;18.48;;;2.42;;
35919;SDS011;36160;53.370;-6.196;2022-12-29T05:53:21;11.07;;;2.10;;
35919;SDS011;36160;53.370;-6.196;2022-12-29T05:55:47;24.67;;;4.10;;
35919;SDS011;36160;53.370;-6.196;2022-12-29T05:58:13;8.10;;;1.77;;
35919;SDS011;36160;53.370;-6.196;2022-12-29T06:00:39;38.53;;;4.60;;
35919;SDS011;36160;53.370;-6.196;2022-12-29T06:03:05;7.47;;;2.13;;
35919;SDS011;36160;53.370;-6.196;2022-12-29T06:05:31;17.55;;;3.05;;
35919;SDS011;36160;53.370;-6.196;2022-12-29T06:07:56;10.38;;;3.03;;
35919;SDS011;36160;53.370;-6.196;2022-12-29T06:10:22;14.23;;;2.30;;
35919;SDS011;36160;53.370;-6.196;2022-12-29T06:12:48;10.80;;;2.17;;
35919;SDS011;36160;53.370;-6.196;2022-12-29T06:15:14;10.65;;;1.77;;
35919;SDS011;36160;53.370;-6.196;2022-12-29T06:17:39;9.68;;;3.00;;
35919;SDS011;36160;53.370;-6.196;2022-12-29T06:20:05;14.98;;;2.72;;
35919;SDS011;36160;53.370;-6.196;2022-12-29T06:22:32;12.68;;;2.60;;
35919;SDS011;36160;53.370;-6.196;2022-12-29T06:24:58;15.23;;;3.22;;
35919;SDS011;36160;53.370;-6.196;2022-12-29T06:27:23;23.90;;;2.78;;
35919;SDS011;36160;53.370;-6.196;2022-12-29T06:29:49;22.20;;;4.13;;
35919;SDS011;36160;53.370;-6.196;2022-12-29T06:32:15;17.33;;;2.55;;
35919;SDS011;36160;53.370;-6.196;2022-12-29T06:34:41;24.50;;;2.50;;
35919;SDS011;36160;53.370;-6.196;2022-12-29T06:37:07;18.88;;;2.70;;
35919;SDS011;36160;53.370;-6.196;2022-12-29T06:39:33;23.35;;;3.33;;
35919;SDS011;36160;53.370;-6.196;2022-12-29T06:41:59;18.08;;;2.25;;
35919;SDS011;36160;53.370;-6.196;2022-12-29T06:44:24;13.18;;;2.22;;
35919;SDS011;36160;53.370;-6.196;2022-12-29T06:46:50;19.58;;;2.80;;
35919;SDS011;36160;53.370;-6.196;2022-12-29T06:49:16;12.30;;;2.40;;
35919;SDS011;36160;53.370;-6.196;2022-12-29T06:51:41;18.13;;;2.55;;
35919;SDS011;36160;53.370;-6.196;2022-12-29T06:54:07;13.80;;;2.33;;
35919;SDS011;36160;53.370;-6.196;2022-12-29T06:56:33;15.23;;;2.50;;
35919;SDS011;36160;53.370;-6.196;2022-12-29T06:58:59;22.08;;;3.28;;
35919;SDS011;36160;53.370;-6.196;2022-12-29T07:01:26;10.30;;;2.25;;
35919;SDS011;36160;53.370;-6.196;2022-12-29T07:03:51;12.98;;;3.55;;
35919;SDS011;36160;53.370;-6.196;2022-12-29T07:06:17;13.30;;;3.08;;
35919;SDS011;36160;53.370;-6.196;2022-12-29T07:08:43;19.90;;;3.17;;
35919;SDS011;36160;53.370;-6.196;2022-12-29T07:11:09;17.50;;;2.88;;
35919;SDS011;36160;53.370;-6.196;2022-12-29T07:13:35;9.98;;;2.42;;
35919;SDS011;36160;53.370;-6.196;2022-12-29T07:16:05;13.05;;;1.98;;
35919;SDS011;36160;53.370;-6.196;2022-12-29T07:18:31;14.20;;;2.40;;
35919;SDS011;36160;53.370;-6.196;2022-12-29T07:20:57;17.60;;;3.55;;
35919;SDS011;36160;53.370;-6.196;2022-12-29T07:23:22;20.13;;;3.20;;
35919;SDS011;36160;53.370;-6.196;2022-12-29T07:25:48;12.80;;;3.17;;
35919;SDS011;36160;53.370;-6.196;2022-12-29T07:28:14;9.57;;;1.95;;
35919;SDS011;36160;53.370;-6.196;2022-12-29T07:30:40;9.98;;;2.38;;
35919;SDS011;36160;53.370;-6.196;2022-12-29T07:33:05;14.80;;;2.95;;
35919;SDS011;36160;53.370;-6.196;2022-12-29T07:35:33;18.55;;;3.13;;
35919;SDS011;36160;53.370;-6.196;2022-12-29T07:37:59;16.40;;;3.90;;
35919;SDS011;36160;53.370;-6.196;2022-12-29T07:40:25;10.40;;;2.35;;
35919;SDS011;36160;53.370;-6.196;2022-12-29T07:42:50;13.65;;;1.90;;
35919;SDS011;36160;53.370;-6.196;2022-12-29T07:45:16;21.25;;;3.80;;
35919;SDS011;36160;53.370;-6.196;2022-12-29T07:47:42;8.45;;;1.85;;
35919;SDS011;36160;53.370;-6.196;2022-12-29T07:50:07;14.50;;;2.58;;
35919;SDS011;36160;53.370;-6.196;2022-12-29T07:52:33;9.98;;;1.80;;
35919;SDS011;36160;53.370;-6.196;2022-12-29T07:54:59;18.10;;;2.47;;
35919;SDS011;36160;53.370;-6.196;2022-12-29T07:57:24;17.20;;;4.07;;
35919;SDS011;36160;53.370;-6.196;2022-12-29T07:59:50;11.15;;;2.38;;
35919;SDS011;36160;53.370;-6.196;2022-12-29T08:02:16;15.15;;;3.00;;
35919;SDS011;36160;53.370;-6.196;2022-12-29T08:04:41;23.88;;;3.40;;
35919;SDS011;36160;53.370;-6.196;2022-12-29T08:07:07;22.20;;;3.30;;
35919;SDS011;36160;53.370;-6.196;2022-12-29T08:09:32;12.95;;;2.15;;
35919;SDS011;36160;53.370;-6.196;2022-12-29T08:11:58;11.77;;;2.17;;
35919;SDS011;36160;53.370;-6.196;2022-12-29T08:14:24;15.85;;;2.20;;
35919;SDS011;36160;53.370;-6.196;2022-12-29T08:16:49;12.68;;;2.67;;
35919;SDS011;36160;53.370;-6.196;2022-12-29T08:19:15;14.63;;;1.90;;
35919;SDS011;36160;53.370;-6.196;2022-12-29T08:21:41;12.00;;;3.08;;
35919;SDS011;36160;53.370;-6.196;2022-12-29T08:24:07;12.93;;;1.85;;
35919;SDS011;36160;53.370;-6.196;2022-12-29T08:26:33;7.15;;;1.60;;
35919;SDS011;36160;53.370;-6.196;2022-12-29T08:28:59;10.40;;;3.45;;
35919;SDS011;36160;53.370;-6.196;2022-12-29T08:31:25;10.65;;;1.90;;
35919;SDS011;36160;53.370;-6.196;2022-12-29T08:33:50;6.25;;;1.65;;
35919;SDS011;36160;53.370;-6.196;2022-12-29T08:36:16;14.98;;;2.60;;
35919;SDS011;36160;53.370;-6.196;2022-12-29T08:38:42;7.82;;;1.85;;
35919;SDS011;36160;53.370;-6.196;2022-12-29T08:41:07;10.35;;;2.78;;
35919;SDS011;36160;53.370;-6.196;2022-12-29T08:43:33;15.80;;;2.58;;
35919;SDS011;36160;53.370;-6.196;2022-12-29T08:45:59;17.70;;;2.95;;
35919;SDS011;36160;53.370;-6.196;2022-12-29T08:48:25;11.02;;;1.75;;
35919;SDS011;36160;53.370;-6.196;2022-12-29T08:50:51;12.00;;;2.15;;
35919;SDS011;36160;53.370;-6.196;2022-12-29T08:53:17;16.42;;;2.55;;
35919;SDS011;36160;53.370;-6.196;2022-12-29T08:55:44;10.65;;;2.33;;
35919;SDS011;36160;53.370;-6.196;2022-12-29T08:58:11;7.22;;;1.50;;
35919;SDS011;36160;53.370;-6.196;2022-12-29T09:00:39;8.10;;;1.73;;
35919;SDS011;36160;53.370;-6.196;2022-12-29T09:03:06;16.52;;;2.78;;
35919;SDS011;36160;53.370;-6.196;2022-12-29T09:05:32;8.77;;;2.10;;
35919;SDS011;36160;53.370;-6.196;2022-12-29T09:07:58;7.00;;;2.42;;
35919;SDS011;36160;53.370;-6.196;2022-12-29T09:10:24;9.15;;;2.25;;
35919;SDS011;36160;53.370;-6.196;2022-12-29T09:12:50;12.57;;;3.00;;
35919;SDS011;36160;53.370;-6.196;2022-12-29T09:15:16;5.97;;;1.50;;
35919;SDS011;36160;53.370;-6.196;2022-12-29T09:17:42;12.20;;;2.42;;
35919;SDS011;36160;53.370;-6.196;2022-12-29T09:20:12;13.35;;;2.72;;
35919;SDS011;36160;53.370;-6.196;2022-12-29T09:22:39;11.70;;;2.22;;
35919;SDS011;36160;53.370;-6.196;2022-12-29T09:25:05;13.95;;;1.67;;
35919;SDS011;36160;53.370;-6.196;2022-12-29T09:27:32;13.65;;;1.85;;
35919;SDS011;36160;53.370;-6.196;2022-12-29T09:29:57;9.13;;;1.63;;
35919;SDS011;36160;53.370;-6.196;2022-12-29T09:32:23;11.13;;;2.83;;
35919;SDS011;36160;53.370;-6.196;2022-12-29T09:34:49;10.30;;;2.33;;
35919;SDS011;36160;53.370;-6.196;2022-12-29T09:37:14;10.15;;;2.63;;
35919;SDS011;36160;53.370;-6.196;2022-12-29T09:39:40;13.10;;;2.88;;
35919;SDS011;36160;53.370;-6.196;2022-12-29T09:47:10;5.72;;;1.90;;
35919;SDS011;36160;53.370;-6.196;2022-12-29T09:54:55;13.18;;;3.53;;
35919;SDS011;36160;53.370;-6.196;2022-12-29T09:57:38;3.42;;;1.48;;
35919;SDS011;36160;53.370;-6.196;2022-12-29T10:02:40;9.40;;;2.33;;
35919;SDS011;36160;53.370;-6.196;2022-12-29T10:05:38;7.63;;;1.42;;
35919;SDS011;36160;53.370;-6.196;2022-12-29T10:11:12;10.77;;;2.08;;
35919;SDS011;36160;53.370;-6.196;2022-12-29T10:24:48;17.30;;;3.03;;
35919;SDS011;36160;53.370;-6.196;2022-12-29T10:27:18;9.55;;;2.58;;
35919;SDS011;36160;53.370;-6.196;2022-12-29T10:29:45;13.25;;;3.42;;
35919;SDS011;36160;53.370;-6.196;2022-12-29T10:35:18;10.70;;;2.58;;
35919;SDS011;36160;53.370;-6.196;2022-12-29T10:37:50;24.42;;;2.50;;
35919;SDS011;36160;53.370;-6.196;2022-12-29T10:42:52;18.05;;;3.85;;
35919;SDS011;36160;53.370;-6.196;2022-12-29T10:47:51;9.02;;;2.42;;
35919;SDS011;36160;53.370;-6.196;2022-12-29T10:50:21;12.23;;;3.80;;
35919;SDS011;36160;53.370;-6.196;2022-12-29T10:52:48;12.75;;;2.35;;
35919;SDS011;36160;53.370;-6.196;2022-12-29T10:55:16;10.95;;;2.60;;
35919;SDS011;36160;53.370;-6.196;2022-12-29T10:58:10;13.90;;;2.40;;
35919;SDS011;36160;53.370;-6.196;2022-12-29T11:05:37;8.02;;;2.15;;
35919;SDS011;36160;53.370;-6.196;2022-12-29T11:08:19;8.55;;;1.98;;
35919;SDS011;36160;53.370;-6.196;2022-12-29T11:10:48;15.95;;;3.53;;
35919;SDS011;36160;53.370;-6.196;2022-12-29T11:13:28;12.27;;;2.63;;
35919;SDS011;36160;53.370;-6.196;2022-12-29T11:15:56;4.00;;;1.75;;
35919;SDS011;36160;53.370;-6.196;2022-12-29T11:18:37;11.85;;;3.28;;
35919;SDS011;36160;53.370;-6.196;2022-12-29T11:21:23;8.15;;;2.65;;
35919;SDS011;36160;53.370;-6.196;2022-12-29T11:24:06;10.77;;;3.30;;
35919;SDS011;36160;53.370;-6.196;2022-12-29T11:26:54;11.35;;;2.95;;
35919;SDS011;36160;53.370;-6.196;2022-12-29T11:29:40;11.25;;;2.70;;
35919;SDS011;36160;53.370;-6.196;2022-12-29T11:32:17;11.02;;;2.08;;
35919;SDS011;36160;53.370;-6.196;2022-12-29T11:34:44;9.93;;;2.83;;
35919;SDS011;36160;53.370;-6.196;2022-12-29T11:37:17;12.27;;;2.08;;
35919;SDS011;36160;53.370;-6.196;2022-12-29T11:39:58;11.20;;;2.42;;
35919;SDS011;36160;53.370;-6.196;2022-12-29T11:42:37;8.68;;;2.40;;
35919;SDS011;36160;53.370;-6.196;2022-12-29T11:45:16;7.68;;;2.10;;
35919;SDS011;36160;53.370;-6.196;2022-12-29T11:47:45;5.35;;;1.60;;
35919;SDS011;36160;53.370;-6.196;2022-12-29T11:50:18;3.13;;;1.70;;
35919;SDS011;36160;53.370;-6.196;2022-12-29T11:52:47;4.35;;;1.75;;
35919;SDS011;36160;53.370;-6.196;2022-12-29T11:55:20;3.50;;;1.38;;
35919;SDS011;36160;53.370;-6.196;2022-12-29T11:57:49;7.78;;;2.60;;
35919;SDS011;36160;53.370;-6.196;2022-12-29T12:00:21;7.00;;;2.28;;
35919;SDS011;36160;53.370;-6.196;2022-12-29T12:02:53;3.92;;;1.40;;
35919;SDS011;36160;53.370;-6.196;2022-12-29T12:07:50;5.95;;;2.00;;
35919;SDS011;36160;53.370;-6.196;2022-12-29T12:10:45;7.43;;;2.10;;
35919;SDS011;36160;53.370;-6.196;2022-12-29T12:13:38;7.43;;;1.75;;
35919;SDS011;36160;53.370;-6.196;2022-12-29T12:21:23;6.28;;;1.60;;
35919;SDS011;36160;53.370;-6.196;2022-12-29T12:24:21;8.18;;;2.17;;
35919;SDS011;36160;53.370;-6.196;2022-12-29T12:27:47;7.82;;;2.25;;
35919;SDS011;36160;53.370;-6.196;2022-12-29T12:29:53;11.57;;;2.15;;
35919;SDS011;36160;53.370;-6.196;2022-12-29T12:32:44;9.20;;;2.10;;
35919;SDS011;36160;53.370;-6.196;2022-12-29T12:43:51;8.88;;;3.20;;
35919;SDS011;36160;53.370;-6.196;2022-12-29T12:46:23;9.55;;;2.35;;
35919;SDS011;36160;53.370;-6.196;2022-12-29T13:00:19;12.38;;;2.55;;
35919;SDS011;36160;53.370;-6.196;2022-12-29T13:14:07;7.30;;;2.20;;
35919;SDS011;36160;53.370;-6.196;2022-12-29T13:16:45;7.28;;;2.10;;
35919;SDS011;36160;53.370;-6.196;2022-12-29T13:19:35;4.70;;;2.20;;
35919;SDS011;36160;53.370;-6.196;2022-12-29T13:29:54;6.32;;;2.63;;
35919;SDS011;36160;53.370;-6.196;2022-12-29T13:38:04;7.32;;;2.20;;
35919;SDS011;36160;53.370;-6.196;2022-12-29T13:40:45;11.30;;;2.55;;
35919;SDS011;36160;53.370;-6.196;2022-12-29T13:43:14;12.10;;;2.85;;
35919;SDS011;36160;53.370;-6.196;2022-12-29T13:45:41;5.13;;;1.58;;
35919;SDS011;36160;53.370;-6.196;2022-12-29T13:48:22;6.05;;;2.45;;
35919;SDS011;36160;53.370;-6.196;2022-12-29T13:50:53;6.47;;;1.77;;
35919;SDS011;36160;53.370;-6.196;2022-12-29T13:53:29;5.05;;;1.70;;
35919;SDS011;36160;53.370;-6.196;2022-12-29T13:56:16;3.85;;;1.45;;
35919;SDS011;36160;53.370;-6.196;2022-12-29T13:58:51;5.28;;;2.38;;
35919;SDS011;36160;53.370;-6.196;2022-12-29T14:01:35;10.40;;;2.75;;
35919;SDS011;36160;53.370;-6.196;2022-12-29T14:04:13;13.48;;;2.38;;
35919;SDS011;36160;53.370;-6.196;2022-12-29T14:06:45;12.43;;;2.00;;
35919;SDS011;36160;53.370;-6.196;2022-12-29T14:09:38;4.30;;;1.75;;
35919;SDS011;36160;53.370;-6.196;2022-12-29T14:17:36;11.20;;;2.47;;
35919;SDS011;36160;53.370;-6.196;2022-12-29T14:20:04;6.60;;;1.90;;
35919;SDS011;36160;53.370;-6.196;2022-12-29T14:22:40;4.85;;;1.80;;
35919;SDS011;36160;53.370;-6.196;2022-12-29T14:28:26;3.42;;;1.48;;
35919;SDS011;36160;53.370;-6.196;2022-12-29T14:30:59;6.65;;;1.50;;
35919;SDS011;36160;53.370;-6.196;2022-12-29T14:33:30;5.60;;;1.58;;
35919;SDS011;36160;53.370;-6.196;2022-12-29T14:36:33;6.20;;;1.92;;
35919;SDS011;36160;53.370;-6.196;2022-12-29T14:38:51;7.22;;;1.83;;
35919;SDS011;36160;53.370;-6.196;2022-12-29T14:41:24;8.90;;;2.10;;
35919;SDS011;36160;53.370;-6.196;2022-12-29T14:47:34;3.50;;;2.05;;
35919;SDS011;36160;53.370;-6.196;2022-12-29T14:49:32;9.27;;;2.20;;
35919;SDS011;36160;53.370;-6.196;2022-12-29T14:54:47;3.78;;;1.63;;
35919;SDS011;36160;53.370;-6.196;2022-12-29T14:57:21;7.35;;;2.83;;
35919;SDS011;36160;53.370;-6.196;2022-12-29T15:00:06;7.22;;;2.63;;
35919;SDS011;36160;53.370;-6.196;2022-12-29T15:02:40;9.60;;;4.10;;
35919;SDS011;36160;53.370;-6.196;2022-12-29T15:05:20;3.72;;;2.00;;
35919;SDS011;36160;53.370;-6.196;2022-12-29T15:08:09;8.52;;;2.95;;
35919;SDS011;36160;53.370;-6.196;2022-12-29T15:10:39;10.07;;;2.60;;
35919;SDS011;36160;53.370;-6.196;2022-12-29T15:13:18;19.35;;;6.47;;
35919;SDS011;36160;53.370;-6.196;2022-12-29T15:15:47;9.95;;;3.30;;
35919;SDS011;36160;53.370;-6.196;2022-12-29T15:18:22;10.48;;;3.90;;
35919;SDS011;36160;53.370;-6.196;2022-12-29T15:21:02;12.38;;;3.42;;
35919;SDS011;36160;53.370;-6.196;2022-12-29T15:23:31;15.57;;;6.28;;
35919;SDS011;36160;53.370;-6.196;2022-12-29T15:26:05;9.05;;;5.10;;
35919;SDS011;36160;53.370;-6.196;2022-12-29T15:28:39;18.42;;;4.70;;
35919;SDS011;36160;53.370;-6.196;2022-12-29T15:31:24;12.95;;;6.10;;
35919;SDS011;36160;53.370;-6.196;2022-12-29T15:33:52;11.23;;;4.40;;
35919;SDS011;36160;53.370;-6.196;2022-12-29T15:36:22;11.27;;;2.83;;
35919;SDS011;36160;53.370;-6.196;2022-12-29T15:38:50;7.90;;;2.45;;
35919;SDS011;36160;53.370;-6.196;2022-12-29T15:41:29;11.15;;;2.58;;
35919;SDS011;36160;53.370;-6.196;2022-12-29T15:44:20;5.47;;;2.00;;
35919;SDS011;36160;53.370;-6.196;2022-12-29T15:46:50;6.80;;;2.10;;
35919;SDS011;36160;53.370;-6.196;2022-12-29T15:49:15;6.30;;;2.33;;
35919;SDS011;36160;53.370;-6.196;2022-12-29T15:51:41;11.48;;;2.33;;
35919;SDS011;36160;53.370;-6.196;2022-12-29T15:54:18;8.15;;;3.00;;
35919;SDS011;36160;53.370;-6.196;2022-12-29T15:56:46;9.10;;;3.10;;
35919;SDS011;36160;53.370;-6.196;2022-12-29T15:59:25;9.27;;;3.10;;
35919;SDS011;36160;53.370;-6.196;2022-12-29T16:01:54;9.15;;;3.00;;
35919;SDS011;36160;53.370;-6.196;2022-12-29T16:04:21;7.18;;;3.30;;
35919;SDS011;36160;53.370;-6.196;2022-12-29T16:06:59;12.57;;;4.78;;
35919;SDS011;36160;53.370;-6.196;2022-12-29T16:09:33;15.65;;;8.02;;
35919;SDS011;36160;53.370;-6.196;2022-12-29T16:14:32;18.83;;;8.00;;
35919;SDS011;36160;53.370;-6.196;2022-12-29T16:17:06;18.52;;;6.93;;
35919;SDS011;36160;53.370;-6.196;2022-12-29T16:19:38;12.50;;;4.45;;
35919;SDS011;36160;53.370;-6.196;2022-12-29T16:22:10;14.35;;;6.05;;
35919;SDS011;36160;53.370;-6.196;2022-12-29T16:24:43;12.20;;;4.32;;
35919;SDS011;36160;53.370;-6.196;2022-12-29T16:27:21;10.45;;;5.18;;
35919;SDS011;36160;53.370;-6.196;2022-12-29T16:29:56;19.45;;;6.50;;
35919;SDS011;36160;53.370;-6.196;2022-12-29T16:32:29;7.65;;;4.30;;
35919;SDS011;36160;53.370;-6.196;2022-12-29T16:35:20;10.88;;;4.15;;
35919;SDS011;36160;53.370;-6.196;2022-12-29T16:43:21;11.10;;;5.22;;
35919;SDS011;36160;53.370;-6.196;2022-12-29T16:48:29;11.95;;;4.38;;
35919;SDS011;36160;53.370;-6.196;2022-12-29T16:51:17;9.82;;;5.90;;
35919;SDS011;36160;53.370;-6.196;2022-12-29T16:53:57;15.63;;;7.72;;
35919;SDS011;36160;53.370;-6.196;2022-12-29T16:56:25;16.23;;;7.78;;
35919;SDS011;36160;53.370;-6.196;2022-12-29T17:01:28;14.75;;;7.15;;
35919;SDS011;36160;53.370;-6.196;2022-12-29T17:03:58;19.10;;;6.70;;
35919;SDS011;36160;53.370;-6.196;2022-12-29T17:06:30;10.73;;;4.20;;
35919;SDS011;36160;53.370;-6.196;2022-12-29T17:08:58;9.15;;;4.57;;
35919;SDS011;36160;53.370;-6.196;2022-12-29T17:16:48;25.67;;;6.70;;
35919;SDS011;36160;53.370;-6.196;2022-12-29T17:19:19;11.95;;;5.13;;
35919;SDS011;36160;53.370;-6.196;2022-12-29T17:21:48;16.35;;;5.07;;
35919;SDS011;36160;53.370;-6.196;2022-12-29T17:24:17;11.35;;;4.07;;
35919;SDS011;36160;53.370;-6.196;2022-12-29T17:26:45;11.07;;;4.70;;
35919;SDS011;36160;53.370;-6.196;2022-12-29T17:29:27;11.35;;;3.78;;
35919;SDS011;36160;53.370;-6.196;2022-12-29T17:31:54;16.60;;;4.60;;
35919;SDS011;36160;53.370;-6.196;2022-12-29T17:34:21;10.65;;;3.75;;
35919;SDS011;36160;53.370;-6.196;2022-12-29T17:36:47;17.95;;;6.07;;
35919;SDS011;36160;53.370;-6.196;2022-12-29T17:39:13;9.75;;;5.18;;